Time;durP1;ratioP1;P1;durP2;ratioP2;P2;SDS_P1;SDS_P2;PMS_P1;PMS_P2;Temp;Humidity;BMP_temperature;BMP_pressure;BME280_temperature;BME280_humidity;BME280_pressure;Samples;Min_cycle;Max_cycle;Signal;HPM_P1;HPM_P2
2022/07/27 00:01:37;;;;;;;3.55;1.77;;;13.30;99.90;;;;;;5043313;28;20063;-74
2022/07/27 00:04:03;;;;;;;4.05;2.05;;;13.30;99.90;;;;;;5023256;28;20481;-74
2022/07/27 00:06:28;;;;;;;5.28;1.98;;;13.30;99.90;;;;;;5041623;28;20464;-74
2022/07/27 00:08:54;;;;;;;3.25;2.00;;;13.30;99.90;;;;;;5026954;28;20706;-74
2022/07/27 00:11:20;;;;;;;4.82;2.20;;;13.30;99.90;;;;;;5043447;28;20037;-74
2022/07/27 00:13:46;;;;;;;5.32;2.33;;;13.30;99.90;;;;;;5027215;28;20437;-74
2022/07/27 00:16:12;;;;;;;7.13;2.47;;;13.20;99.90;;;;;;5027783;28;20406;-74
2022/07/27 00:18:38;;;;;;;4.45;2.50;;;13.20;99.90;;;;;;5007377;28;20044;-74
2022/07/27 00:21:03;;;;;;;3.42;2.42;;;13.20;99.90;;;;;;5027340;28;20048;-74
2022/07/27 00:23:29;;;;;;;4.10;2.00;;;13.20;99.90;;;;;;5040879;28;20072;-74
2022/07/27 00:25:55;;;;;;;4.93;2.00;;;13.10;99.90;;;;;;5007860;28;20032;-74
2022/07/27 00:28:21;;;;;;;6.90;2.88;;;13.10;99.90;;;;;;5041418;28;20540;-74
2022/07/27 00:30:46;;;;;;;3.95;2.25;;;13.00;99.90;;;;;;5040591;28;20041;-74
2022/07/27 00:33:15;;;;;;;4.22;2.30;;;13.00;99.90;;;;;;5038662;28;20040;-74
2022/07/27 00:35:41;;;;;;;5.63;2.22;;;13.00;99.90;;;;;;5024950;28;20048;-74
2022/07/27 00:38:09;;;;;;;4.75;2.20;;;13.00;99.90;;;;;;5024138;28;20036;-74
2022/07/27 00:40:35;;;;;;;12.15;2.58;;;13.00;99.90;;;;;;5023510;28;20379;-74
2022/07/27 00:43:04;;;;;;;5.28;2.25;;;13.00;99.90;;;;;;5039382;28;20057;-74
2022/07/27 00:45:29;;;;;;;5.40;2.25;;;12.90;99.90;;;;;;5020802;28;20043;-75
2022/07/27 00:47:55;;;;;;;6.40;2.30;;;12.90;99.90;;;;;;5046601;28;20369;-74
2022/07/27 00:50:21;;;;;;;4.10;2.30;;;12.90;99.90;;;;;;5041411;28;20040;-74
2022/07/27 00:52:47;;;;;;;6.43;2.38;;;12.90;99.90;;;;;;5041538;28;20075;-74
2022/07/27 00:55:14;;;;;;;4.20;2.50;;;12.80;99.90;;;;;;5031995;28;20040;-74
2022/07/27 00:57:42;;;;;;;5.35;2.05;;;12.80;99.90;;;;;;4984052;28;20037;-74
2022/07/27 01:00:10;;;;;;;4.85;2.10;;;12.80;99.90;;;;;;5034892;28;20494;-74
2022/07/27 01:02:36;;;;;;;4.28;2.00;;;12.80;99.90;;;;;;5017596;28;20076;-74
2022/07/27 01:05:02;;;;;;;2.70;2.22;;;12.80;99.90;;;;;;5046069;28;20061;-73
2022/07/27 01:07:31;;;;;;;7.25;2.35;;;12.80;99.90;;;;;;5017565;28;20512;-73
2022/07/27 01:09:58;;;;;;;4.05;2.10;;;12.80;99.90;;;;;;5036006;28;20059;-73
2022/07/27 01:12:31;;;;;;;6.32;2.15;;;12.70;99.90;;;;;;5000248;28;20517;-73
2022/07/27 01:14:57;;;;;;;5.65;2.17;;;12.80;99.90;;;;;;5016280;28;20128;-73
2022/07/27 01:17:25;;;;;;;5.15;2.15;;;12.80;99.90;;;;;;5021819;28;20041;-73
2022/07/27 01:19:52;;;;;;;4.22;1.98;;;12.70;99.90;;;;;;5033997;28;20044;-73
2022/07/27 01:22:18;;;;;;;6.78;2.03;;;12.70;99.90;;;;;;5056618;28;20256;-74
2022/07/27 01:24:48;;;;;;;7.10;2.40;;;12.80;99.90;;;;;;5027430;28;20494;-74
2022/07/27 01:27:14;;;;;;;5.45;2.53;;;12.80;99.90;;;;;;5038513;28;20041;-74
2022/07/27 01:29:40;;;;;;;6.47;2.20;;;12.80;99.90;;;;;;5018472;28;20352;-74
2022/07/27 01:32:06;;;;;;;8.00;2.35;;;12.80;99.90;;;;;;5008835;28;20028;-75
2022/07/27 01:34:32;;;;;;;6.57;1.88;;;12.80;99.90;;;;;;5036674;28;20520;-74
2022/07/27 01:37:03;;;;;;;5.05;2.15;;;12.80;99.90;;;;;;5042587;28;20385;-74
2022/07/27 01:39:32;;;;;;;7.07;2.38;;;12.80;99.90;;;;;;5024009;28;20040;-74
2022/07/27 01:41:59;;;;;;;6.38;3.35;;;12.90;99.90;;;;;;5039157;28;20501;-75
2022/07/27 01:44:25;;;;;;;6.78;2.00;;;12.80;99.90;;;;;;5042599;28;20040;-74
2022/07/27 01:46:51;;;;;;;6.45;2.10;;;12.90;99.90;;;;;;5017471;28;20036;-74
2022/07/27 01:49:17;;;;;;;3.40;2.10;;;12.90;99.90;;;;;;5042510;28;20097;-75
2022/07/27 01:51:43;;;;;;;5.13;2.20;;;12.90;99.90;;;;;;5038567;28;20141;-74
2022/07/27 01:54:09;;;;;;;5.85;2.00;;;12.90;99.90;;;;;;5039856;28;20025;-75
2022/07/27 01:56:34;;;;;;;6.05;2.17;;;12.90;99.90;;;;;;5022751;28;20500;-74
2022/07/27 01:59:00;;;;;;;5.10;2.60;;;12.90;99.90;;;;;;5019940;28;20170;-74
2022/07/27 02:01:26;;;;;;;5.93;2.03;;;12.90;99.90;;;;;;5035332;28;20044;-74
2022/07/27 02:03:52;;;;;;;4.88;1.95;;;12.90;99.90;;;;;;5040539;28;20397;-74
2022/07/27 02:06:18;;;;;;;8.73;2.10;;;12.90;99.90;;;;;;5020818;28;20509;-74
2022/07/27 02:08:43;;;;;;;8.85;2.53;;;12.90;99.90;;;;;;5021022;28;20047;-74
2022/07/27 02:13:53;;;;;;;6.22;2.30;;;12.90;99.90;;;;;;5038241;28;20040;-74
2022/07/27 02:16:19;;;;;;;5.22;2.33;;;12.90;99.90;;;;;;5019266;28;20040;-74
2022/07/27 02:18:46;;;;;;;2.78;1.90;;;12.90;99.90;;;;;;5027430;28;20036;-74
2022/07/27 02:21:12;;;;;;;4.35;2.00;;;12.90;99.90;;;;;;5039111;28;20036;-74
2022/07/27 02:23:39;;;;;;;4.32;2.10;;;12.80;99.90;;;;;;5041895;28;20032;-74
2022/07/27 02:26:07;;;;;;;7.00;3.28;;;12.80;99.90;;;;;;5054108;28;20071;-74
2022/07/27 02:28:34;;;;;;;3.70;2.00;;;12.80;99.90;;;;;;5054294;28;20041;-74
2022/07/27 02:31:01;;;;;;;5.25;2.17;;;12.80;99.90;;;;;;5035891;28;20045;-74
2022/07/27 02:33:27;;;;;;;4.45;2.08;;;12.70;99.90;;;;;;5040751;28;20036;-74
2022/07/27 02:35:52;;;;;;;4.47;1.90;;;12.70;99.90;;;;;;5038516;28;20041;-74
2022/07/27 02:38:18;;;;;;;6.78;2.30;;;12.60;99.90;;;;;;5044286;28;20754;-74
2022/07/27 02:40:44;;;;;;;6.90;2.28;;;12.60;99.90;;;;;;5039198;28;20060;-74
2022/07/27 02:43:10;;;;;;;4.00;1.85;;;12.60;99.90;;;;;;5037462;28;20044;-74
2022/07/27 02:45:36;;;;;;;5.60;1.95;;;12.50;99.90;;;;;;5023743;28;20528;-74
2022/07/27 02:48:01;;;;;;;4.88;2.55;;;12.50;99.90;;;;;;5043136;28;20025;-74
2022/07/27 02:50:27;;;;;;;10.02;2.53;;;12.40;99.90;;;;;;5040698;28;20489;-74
2022/07/27 02:52:53;;;;;;;5.25;2.03;;;12.40;99.90;;;;;;5024135;28;20044;-74
2022/07/27 02:55:19;;;;;;;5.03;2.10;;;12.40;99.90;;;;;;5040726;28;20040;-74
2022/07/27 02:57:44;;;;;;;5.60;2.08;;;12.30;99.90;;;;;;5022694;28;20150;-74
2022/07/27 03:00:13;;;;;;;5.90;2.15;;;12.30;99.90;;;;;;5022435;28;20041;-74
2022/07/27 03:02:40;;;;;;;5.45;2.08;;;12.20;99.90;;;;;;5041002;28;20080;-74
2022/07/27 03:05:07;;;;;;;7.75;2.33;;;12.20;99.90;;;;;;5031745;28;20401;-74
2022/07/27 03:07:33;;;;;;;8.77;2.42;;;12.20;99.90;;;;;;5018223;28;20600;-74
2022/07/27 03:09:59;;;;;;;4.45;2.10;;;12.20;99.90;;;;;;5038624;28;20131;-75
2022/07/27 03:12:25;;;;;;;5.97;1.98;;;12.10;99.90;;;;;;5041941;28;20033;-75
2022/07/27 03:14:50;;;;;;;3.33;2.30;;;12.10;99.90;;;;;;5013153;28;20125;-74
2022/07/27 03:17:16;;;;;;;7.55;3.03;;;12.10;99.90;;;;;;5012070;28;20493;-74
2022/07/27 03:19:42;;;;;;;3.92;2.60;;;12.10;99.90;;;;;;5042499;28;20028;-74
2022/07/27 03:22:08;;;;;;;4.95;2.20;;;12.10;99.90;;;;;;5009212;28;20079;-74
2022/07/27 03:24:34;;;;;;;6.03;2.38;;;12.00;99.90;;;;;;5044225;28;20497;-74
2022/07/27 03:27:02;;;;;;;10.27;3.00;;;12.00;99.90;;;;;;5026166;28;20123;-74
2022/07/27 03:29:28;;;;;;;3.53;2.30;;;12.00;99.90;;;;;;5044409;28;20076;-74
2022/07/27 03:31:54;;;;;;;5.50;2.72;;;12.00;99.90;;;;;;5009769;28;20097;-74
2022/07/27 03:34:20;;;;;;;8.95;2.30;;;12.00;99.90;;;;;;5046004;28;20020;-74
2022/07/27 03:36:48;;;;;;;6.32;2.60;;;12.00;99.90;;;;;;5024452;28;20511;-73
2022/07/27 03:39:20;;;;;;;6.68;2.30;;;12.00;99.90;;;;;;5042392;28;20409;-73
2022/07/27 03:41:45;;;;;;;3.63;2.38;;;12.00;99.90;;;;;;5053141;28;20053;-73
2022/07/27 03:44:11;;;;;;;5.95;2.65;;;12.00;99.90;;;;;;5022643;28;20094;-73
2022/07/27 03:46:37;;;;;;;4.82;2.15;;;11.90;99.90;;;;;;5000996;28;20138;-73
2022/07/27 03:49:03;;;;;;;6.28;3.00;;;12.00;99.90;;;;;;5022321;28;20245;-73
2022/07/27 03:51:31;;;;;;;5.00;2.55;;;11.90;99.90;;;;;;5026951;28;20085;-74
2022/07/27 03:53:57;;;;;;;6.32;2.83;;;11.90;99.90;;;;;;5021864;28;20037;-74
2022/07/27 03:56:23;;;;;;;7.72;2.75;;;11.90;99.90;;;;;;5039047;28;20453;-73
2022/07/27 03:58:49;;;;;;;5.75;2.75;;;11.90;99.90;;;;;;5038377;28;20503;-74
2022/07/27 04:01:14;;;;;;;7.55;3.47;;;11.90;99.90;;;;;;5020457;28;20041;-73
2022/07/27 04:03:40;;;;;;;7.93;2.47;;;11.90;99.90;;;;;;5037601;28;20041;-74
2022/07/27 04:06:06;;;;;;;5.45;2.53;;;11.90;99.90;;;;;;5039743;28;20060;-73
2022/07/27 04:08:31;;;;;;;7.30;2.97;;;11.90;99.90;;;;;;5022113;28;20040;-73
2022/07/27 04:10:57;;;;;;;7.63;2.78;;;11.80;99.90;;;;;;5033220;28;20494;-73
2022/07/27 04:13:23;;;;;;;4.63;2.58;;;11.90;99.90;;;;;;5040534;28;20033;-74
2022/07/27 04:15:48;;;;;;;8.13;3.50;;;11.80;99.90;;;;;;5037116;28;20453;-74
2022/07/27 04:18:14;;;;;;;5.75;2.58;;;11.80;99.90;;;;;;5024017;28;20045;-74
2022/07/27 04:20:40;;;;;;;6.35;2.80;;;11.90;99.90;;;;;;5024846;28;20636;-74
2022/07/27 04:23:05;;;;;;;7.38;2.97;;;11.90;99.90;;;;;;5035605;28;20119;-74
2022/07/27 04:25:31;;;;;;;8.88;2.90;;;11.90;99.90;;;;;;5041448;28;20053;-73
2022/07/27 04:27:57;;;;;;;5.78;2.90;;;11.90;99.90;;;;;;5023766;28;20425;-74
2022/07/27 04:30:23;;;;;;;4.25;2.80;;;12.00;99.90;;;;;;5007544;28;20115;-74
2022/07/27 04:32:49;;;;;;;6.13;2.63;;;12.00;99.90;;;;;;5053349;28;20571;-74
2022/07/27 04:35:15;;;;;;;5.45;2.78;;;12.10;99.90;;;;;;5024054;28;20040;-74
2022/07/27 04:37:40;;;;;;;12.70;3.65;;;12.10;99.90;;;;;;5033841;28;20045;-74
2022/07/27 04:40:08;;;;;;;5.82;2.97;;;12.10;99.90;;;;;;5022221;28;20090;-74
2022/07/27 04:42:33;;;;;;;6.97;3.05;;;12.10;99.90;;;;;;5021864;28;20131;-74
2022/07/27 04:44:59;;;;;;;7.10;3.20;;;12.20;99.90;;;;;;5025536;28;20032;-74
2022/07/27 04:47:25;;;;;;;8.77;2.45;;;12.20;99.90;;;;;;5028266;28;20028;-74
2022/07/27 04:49:51;;;;;;;6.07;3.30;;;12.20;99.90;;;;;;5027185;28;20116;-74
2022/07/27 04:52:17;;;;;;;6.45;2.72;;;12.30;99.90;;;;;;5036074;28;20135;-74
2022/07/27 04:54:43;;;;;;;5.20;2.20;;;12.30;99.90;;;;;;5059449;28;20127;-74
2022/07/27 04:57:09;;;;;;;5.50;2.85;;;12.30;99.90;;;;;;5041534;28;20047;-74
2022/07/27 04:59:34;;;;;;;4.50;2.63;;;12.40;99.90;;;;;;5042716;28;20113;-74
2022/07/27 05:02:00;;;;;;;7.68;2.72;;;12.40;99.90;;;;;;5026442;28;20405;-74
2022/07/27 05:04:26;;;;;;;5.55;2.90;;;12.40;99.90;;;;;;5023914;28;20037;-74
2022/07/27 05:06:52;;;;;;;7.05;2.90;;;12.40;99.90;;;;;;5008162;28;20080;-74
2022/07/27 05:09:17;;;;;;;4.70;2.78;;;12.40;99.90;;;;;;5027051;28;20082;-74
2022/07/27 05:11:46;;;;;;;7.65;3.20;;;12.40;99.90;;;;;;5023959;28;20508;-74
2022/07/27 05:14:11;;;;;;;4.95;2.40;;;12.50;99.90;;;;;;5022674;28;20041;-73
2022/07/27 05:16:40;;;;;;;7.07;2.60;;;12.50;99.90;;;;;;5041420;28;20056;-73
2022/07/27 05:19:06;;;;;;;7.95;3.15;;;12.50;99.90;;;;;;5041527;28;20051;-74
2022/07/27 05:21:32;;;;;;;8.18;2.60;;;12.50;99.90;;;;;;5013684;28;20044;-75
2022/07/27 05:23:58;;;;;;;7.78;2.75;;;12.60;99.90;;;;;;5021578;28;20477;-73
2022/07/27 05:26:24;;;;;;;6.18;2.40;;;12.50;99.90;;;;;;5032136;28;20037;-73
2022/07/27 05:28:50;;;;;;;10.52;2.50;;;12.70;99.90;;;;;;5040109;28;20407;-74
2022/07/27 05:31:17;;;;;;;10.20;3.53;;;12.70;99.90;;;;;;5037525;28;20040;-74
2022/07/27 05:33:43;;;;;;;7.75;2.85;;;12.70;99.90;;;;;;5022589;28;20040;-73
2022/07/27 05:36:08;;;;;;;7.70;2.60;;;12.80;99.90;;;;;;5041664;28;20032;-73
2022/07/27 05:38:38;;;;;;;12.98;3.05;;;12.90;99.90;;;;;;5037000;28;20036;-73
2022/07/27 05:41:07;;;;;;;9.18;3.28;;;12.90;99.90;;;;;;5024227;28;20052;-73
2022/07/27 05:43:33;;;;;;;10.23;2.60;;;12.90;99.90;;;;;;5032117;28;20045;-74
2022/07/27 05:45:59;;;;;;;6.00;2.78;;;13.00;99.90;;;;;;5022501;28;20032;-73
2022/07/27 05:48:25;;;;;;;5.57;2.35;;;13.00;99.90;;;;;;5041632;28;20089;-73
2022/07/27 05:50:51;;;;;;;7.00;2.65;;;13.10;99.90;;;;;;5030551;28;20131;-73
2022/07/27 05:53:18;;;;;;;5.90;2.53;;;13.20;99.90;;;;;;5015271;28;20187;-73
2022/07/27 05:55:43;;;;;;;6.28;2.50;;;13.20;99.90;;;;;;5030026;28;20269;-73
2022/07/27 05:58:09;;;;;;;6.18;2.58;;;13.30;99.90;;;;;;5035356;28;20035;-74
2022/07/27 06:00:35;;;;;;;4.15;2.42;;;13.30;99.90;;;;;;5038012;28;20659;-74
2022/07/27 06:03:01;;;;;;;6.63;2.30;;;13.40;99.90;;;;;;5040297;28;20041;-73
2022/07/27 06:05:26;;;;;;;5.88;2.78;;;13.40;99.90;;;;;;5021350;28;20044;-74
2022/07/27 06:07:58;;;;;;;5.47;2.50;;;13.50;99.90;;;;;;5037130;28;20444;-73
2022/07/27 06:10:28;;;;;;;7.50;2.40;;;13.60;99.90;;;;;;5016663;28;20110;-74
2022/07/27 06:12:54;;;;;;;4.50;2.25;;;13.70;99.90;;;;;;5041753;28;20067;-74
2022/07/27 06:15:21;;;;;;;3.60;2.00;;;13.70;99.90;;;;;;5052500;28;20045;-74
2022/07/27 06:17:48;;;;;;;5.43;2.20;;;13.80;99.90;;;;;;5039928;28;20048;-74
2022/07/27 06:20:14;;;;;;;6.03;2.35;;;13.90;99.90;;;;;;5019373;28;20037;-74
2022/07/27 06:22:45;;;;;;;9.60;2.65;;;13.90;99.90;;;;;;5015995;28;20137;-74
2022/07/27 06:25:11;;;;;;;7.50;2.33;;;14.00;99.90;;;;;;5041470;28;20056;-73
2022/07/27 06:27:37;;;;;;;4.60;2.33;;;14.00;99.90;;;;;;5013157;28;20034;-73
2022/07/27 06:30:04;;;;;;;8.73;2.53;;;14.10;99.90;;;;;;5022236;28;20033;-74
2022/07/27 06:32:29;;;;;;;6.32;2.50;;;14.20;99.90;;;;;;5032446;28;20047;-73
2022/07/27 06:34:55;;;;;;;4.82;2.50;;;14.30;99.90;;;;;;5032226;28;20033;-73
2022/07/27 06:37:21;;;;;;;6.15;2.40;;;14.30;99.90;;;;;;5035523;28;20497;-74
2022/07/27 06:39:46;;;;;;;5.22;2.45;;;14.30;99.90;;;;;;5019461;28;20406;-74
2022/07/27 06:42:13;;;;;;;3.67;2.53;;;14.30;99.90;;;;;;5037171;28;20414;-74
2022/07/27 06:44:39;;;;;;;7.88;2.55;;;14.40;99.90;;;;;;5005395;28;20739;-74
2022/07/27 06:47:06;;;;;;;5.40;2.10;;;14.40;99.90;;;;;;5023960;28;20038;-74
2022/07/27 06:49:32;;;;;;;6.97;2.47;;;14.40;99.90;;;;;;4994723;28;20043;-75
2022/07/27 06:51:58;;;;;;;4.82;2.40;;;14.40;99.90;;;;;;5010605;28;20481;-75
2022/07/27 06:54:24;;;;;;;6.03;2.10;;;14.50;99.90;;;;;;5026975;28;20044;-75
2022/07/27 06:56:50;;;;;;;7.03;2.08;;;14.50;99.90;;;;;;5029315;28;20037;-75
2022/07/27 06:59:15;;;;;;;5.70;2.70;;;14.60;99.90;;;;;;5010781;28;20047;-74
2022/07/27 07:01:42;;;;;;;5.22;2.20;;;14.70;99.90;;;;;;5011092;28;20494;-75
2022/07/27 07:04:08;;;;;;;5.13;2.55;;;14.70;99.90;;;;;;5032147;28;20444;-75
2022/07/27 07:06:34;;;;;;;6.45;1.98;;;14.80;99.90;;;;;;5029149;28;20045;-75
2022/07/27 07:09:00;;;;;;;6.90;2.53;;;14.80;99.90;;;;;;5028456;28;20048;-75
2022/07/27 07:11:26;;;;;;;4.22;2.10;;;14.90;99.90;;;;;;5031929;28;20060;-75
2022/07/27 07:13:51;;;;;;;6.05;2.50;;;14.90;99.90;;;;;;5031656;28;20041;-75
2022/07/27 07:16:17;;;;;;;9.48;2.13;;;15.00;99.90;;;;;;5032108;28;20123;-75
2022/07/27 07:18:43;;;;;;;4.03;1.95;;;15.00;99.90;;;;;;5019037;28;20078;-75
2022/07/27 07:21:09;;;;;;;7.65;2.45;;;15.10;99.90;;;;;;5042258;28;20045;-75
2022/07/27 07:23:34;;;;;;;9.98;2.53;;;15.10;99.90;;;;;;5031935;28;20075;-75
2022/07/27 07:26:00;;;;;;;7.30;1.75;;;15.20;99.90;;;;;;5031445;28;20044;-74
2022/07/27 07:28:26;;;;;;;5.07;1.90;;;15.20;99.90;;;;;;5031595;28;20089;-75
2022/07/27 07:30:52;;;;;;;4.15;1.55;;;15.20;99.90;;;;;;5015717;28;20073;-75
2022/07/27 07:33:18;;;;;;;4.82;1.95;;;15.20;99.90;;;;;;5015496;28;20048;-75
2022/07/27 07:35:43;;;;;;;5.05;1.65;;;15.20;99.90;;;;;;5015294;28;20045;-75
2022/07/27 07:38:09;;;;;;;5.88;1.65;;;15.20;99.90;;;;;;5031572;28;20180;-75
2022/07/27 07:40:36;;;;;;;3.38;1.80;;;15.20;99.90;;;;;;4995616;28;20132;-75
2022/07/27 07:43:03;;;;;;;12.18;2.60;;;15.10;99.90;;;;;;5023734;28;20088;-75
2022/07/27 07:45:32;;;;;;;3.38;1.77;;;15.10;99.90;;;;;;5015348;28;20490;-75
2022/07/27 07:47:58;;;;;;;1.67;1.52;;;15.00;99.90;;;;;;5031697;28;20044;-75
2022/07/27 07:50:24;;;;;;;4.57;1.58;;;15.00;99.90;;;;;;5015124;28;20124;-75
2022/07/27 07:52:51;;;;;;;5.85;1.58;;;15.00;99.90;;;;;;5015368;28;20047;-75
2022/07/27 07:55:22;;;;;;;5.47;1.50;;;15.00;99.90;;;;;;4998901;28;20102;-75
2022/07/27 07:57:48;;;;;;;2.72;1.35;;;15.10;99.90;;;;;;5016372;28;20068;-75
2022/07/27 08:00:14;;;;;;;6.30;1.52;;;15.20;99.90;;;;;;5019066;28;20076;-75
2022/07/27 08:02:51;;;;;;;3.10;1.33;;;15.20;99.90;;;;;;5051883;28;20058;-75
2022/07/27 08:05:18;;;;;;;6.03;1.60;;;15.30;99.90;;;;;;5018714;28;20103;-75
2022/07/27 08:07:44;;;;;;;6.15;1.45;;;15.40;99.90;;;;;;5018212;28;20037;-75
2022/07/27 08:10:12;;;;;;;6.78;1.52;;;15.50;99.90;;;;;;5034685;28;20041;-75
2022/07/27 08:12:39;;;;;;;5.00;1.58;;;15.60;99.90;;;;;;5034866;28;20037;-75
2022/07/27 08:15:06;;;;;;;3.05;1.45;;;15.70;99.90;;;;;;5028336;28;20120;-75
2022/07/27 08:17:32;;;;;;;5.25;1.52;;;15.90;99.90;;;;;;5042250;28;20053;-75
2022/07/27 08:19:58;;;;;;;6.05;1.48;;;15.90;99.90;;;;;;5006031;28;20037;-75
2022/07/27 08:22:24;;;;;;;9.48;2.28;;;16.00;99.90;;;;;;4996975;28;20301;-75
2022/07/27 08:24:50;;;;;;;4.30;1.38;;;16.20;99.90;;;;;;5033717;28;20041;-75
2022/07/27 08:27:16;;;;;;;3.50;1.42;;;16.30;99.90;;;;;;5029522;28;20038;-75
2022/07/27 08:29:41;;;;;;;15.98;2.97;;;16.40;99.90;;;;;;5029968;28;20033;-75
2022/07/27 08:32:07;;;;;;;4.20;1.27;;;16.50;99.90;;;;;;5013342;28;20033;-75
2022/07/27 08:34:33;;;;;;;5.15;1.58;;;16.60;99.90;;;;;;5035522;28;20037;-73
2022/07/27 08:36:59;;;;;;;3.40;1.48;;;16.70;99.90;;;;;;5051430;28;20480;-73
2022/07/27 08:39:25;;;;;;;5.25;1.35;;;16.80;99.90;;;;;;5051759;28;20238;-75
2022/07/27 08:41:52;;;;;;;11.23;1.80;;;17.00;99.90;;;;;;5013501;28;20057;-78
2022/07/27 08:44:22;;;;;;;7.05;1.70;;;17.20;99.90;;;;;;4997423;28;20057;-75
2022/07/27 08:46:50;;;;;;;6.25;1.60;;;17.40;99.90;;;;;;5013662;28;20309;-76
2022/07/27 08:49:17;;;;;;;4.63;1.60;;;17.50;99.90;;;;;;4997671;28;20124;-75
2022/07/27 08:51:43;;;;;;;6.22;1.40;;;17.60;99.90;;;;;;5005500;28;20372;-74
2022/07/27 08:54:09;;;;;;;3.35;1.40;;;17.90;99.90;;;;;;5010728;28;20037;-75
2022/07/27 08:56:36;;;;;;;5.05;1.50;;;18.00;99.90;;;;;;5017999;28;20129;-75
2022/07/27 08:59:03;;;;;;;5.28;1.42;;;18.20;99.90;;;;;;5019104;28;20479;-75
2022/07/27 09:01:31;;;;;;;5.57;1.58;;;18.30;99.90;;;;;;4997577;28;20056;-75
2022/07/27 09:03:57;;;;;;;7.22;1.80;;;18.40;99.90;;;;;;5013573;28;20491;-75
2022/07/27 09:06:47;;;;;;;4.07;2.15;;;18.50;99.90;;;;;;5013818;28;20415;-74
2022/07/27 09:09:15;;;;;;;3.65;1.70;;;18.60;99.60;;;;;;5013439;28;20041;-75
2022/07/27 09:11:42;;;;;;;4.63;1.63;;;18.60;99.90;;;;;;5007000;28;20045;-74
2022/07/27 09:14:11;;;;;;;6.80;1.50;;;18.70;99.90;;;;;;5013121;28;20099;-76
2022/07/27 09:16:37;;;;;;;4.82;1.70;;;18.80;99.90;;;;;;5014463;28;20457;-75
2022/07/27 09:19:06;;;;;;;8.15;1.92;;;19.00;99.90;;;;;;5011588;28;20095;-75
2022/07/27 09:21:33;;;;;;;8.00;1.52;;;19.00;99.90;;;;;;4985104;28;20037;-75
2022/07/27 09:24:13;;;;;;;5.20;1.50;;;19.00;99.80;;;;;;5012041;28;20045;-75
2022/07/27 09:26:41;;;;;;;3.25;1.40;;;18.80;99.00;;;;;;5003971;28;20099;-75
2022/07/27 09:29:09;;;;;;;6.22;1.50;;;18.60;99.30;;;;;;5015321;28;20049;-74
2022/07/27 09:31:46;;;;;;;6.85;1.80;;;18.30;99.90;;;;;;5008186;28;20077;-71
2022/07/27 09:34:24;;;;;;;2.35;1.33;;;17.90;99.90;;;;;;5014679;28;20065;-73
2022/07/27 09:36:58;;;;;;;4.53;1.70;;;17.60;99.90;;;;;;5025069;28;20438;-71
2022/07/27 09:39:26;;;;;;;4.47;2.00;;;17.30;99.90;;;;;;5013183;28;20180;-73
2022/07/27 09:41:58;;;;;;;4.00;1.65;;;17.00;99.90;;;;;;4971712;28;20115;-73
2022/07/27 09:44:54;;;;;;;4.57;1.90;;;16.70;99.90;;;;;;5012098;28;20098;-74
2022/07/27 09:47:25;;;;;;;6.75;1.70;;;16.50;99.90;;;;;;5005707;28;20408;-73
2022/07/27 09:50:15;;;;;;;7.97;1.80;;;16.30;99.90;;;;;;4995709;28;20041;-73
2022/07/27 09:52:40;;;;;;;8.95;1.85;;;16.20;99.90;;;;;;5026569;28;20075;-73
2022/07/27 09:55:06;;;;;;;5.60;1.90;;;16.10;99.90;;;;;;4997763;28;20064;-73
2022/07/27 09:57:51;;;;;;;4.80;1.70;;;16.00;99.90;;;;;;5007212;28;20094;-73
2022/07/27 10:00:17;;;;;;;6.25;2.28;;;16.00;99.90;;;;;;5032235;28;20049;-73
2022/07/27 10:02:44;;;;;;;5.43;1.83;;;16.00;99.90;;;;;;5032229;28;20049;-73
2022/07/27 10:05:10;;;;;;;4.50;1.95;;;16.00;99.90;;;;;;5031414;28;20049;-73
2022/07/27 10:07:36;;;;;;;23.45;3.83;;;16.10;99.90;;;;;;4999233;28;20044;-73
2022/07/27 10:10:03;;;;;;;5.70;2.00;;;16.20;99.90;;;;;;5032223;28;20375;-73
2022/07/27 10:12:29;;;;;;;4.53;2.40;;;16.30;99.90;;;;;;5012130;28;20536;-74
2022/07/27 10:14:54;;;;;;;6.63;2.15;;;16.40;99.90;;;;;;5021115;28;20069;-74
2022/07/27 10:17:20;;;;;;;4.15;1.73;;;16.50;99.90;;;;;;5027933;28;20108;-74
2022/07/27 10:19:49;;;;;;;6.43;2.13;;;16.60;99.90;;;;;;5035234;28;21114;-74
2022/07/27 10:22:15;;;;;;;4.68;1.88;;;16.80;99.90;;;;;;5013298;28;20448;-73
2022/07/27 10:24:42;;;;;;;6.20;2.05;;;16.90;99.90;;;;;;5033438;28;20038;-73
2022/07/27 10:27:19;;;;;;;4.05;1.65;;;17.10;99.90;;;;;;5013876;28;20033;-73
2022/07/27 10:29:47;;;;;;;3.90;1.80;;;17.20;99.90;;;;;;5028768;28;20046;-74
2022/07/27 10:32:26;;;;;;;4.50;1.85;;;17.40;99.90;;;;;;5028946;28;20041;-74
2022/07/27 10:34:53;;;;;;;5.30;1.85;;;17.60;99.90;;;;;;5007150;28;20358;-74
2022/07/27 10:37:33;;;;;;;4.05;1.90;;;17.90;99.90;;;;;;5019420;28;20048;-74
2022/07/27 10:42:48;;;;;;;3.08;1.42;;;18.30;99.90;;;;;;5027951;28;20050;-74
2022/07/27 10:45:16;;;;;;;5.95;1.50;;;18.40;99.90;;;;;;5008377;28;20048;-74
2022/07/27 10:47:47;;;;;;;7.95;2.08;;;18.50;99.90;;;;;;5032360;28;20037;-74
2022/07/27 10:50:16;;;;;;;6.63;1.50;;;18.70;99.90;;;;;;5027807;28;20037;-74
2022/07/27 10:52:44;;;;;;;3.97;1.20;;;18.70;99.90;;;;;;5027593;28;20037;-74
2022/07/27 10:55:28;;;;;;;2.88;1.38;;;18.70;99.90;;;;;;5045742;28;20037;-74
2022/07/27 10:57:55;;;;;;;3.80;1.40;;;18.60;99.70;;;;;;5029175;28;20048;-74
2022/07/27 11:00:47;;;;;;;2.80;1.30;;;18.80;99.90;;;;;;5027306;28;20037;-75
2022/07/27 11:03:33;;;;;;;3.85;1.58;;;19.10;99.90;;;;;;5025760;28;20506;-74
2022/07/27 11:06:01;;;;;;;3.05;1.30;;;19.10;99.00;;;;;;5009772;28;20038;-74
2022/07/27 11:08:36;;;;;;;3.95;2.53;;;19.00;98.60;;;;;;5024847;28;20098;-77
2022/07/27 11:11:03;;;;;;;6.45;4.05;;;19.10;98.60;;;;;;5025486;28;20072;-77
2022/07/27 11:13:32;;;;;;;8.32;1.80;;;19.20;99.10;;;;;;5010565;28;20099;-75
2022/07/27 11:16:07;;;;;;;3.13;1.30;;;19.20;98.50;;;;;;5012610;28;20048;-77
2022/07/27 11:18:35;;;;;;;4.07;1.70;;;19.40;98.70;;;;;;5027485;28;20059;-76
2022/07/27 11:21:27;;;;;;;3.55;1.23;;;19.50;97.40;;;;;;5025744;28;20394;-76
2022/07/27 11:24:02;;;;;;;3.75;1.63;;;19.90;98.80;;;;;;5018911;28;20041;-76
2022/07/27 11:26:35;;;;;;;3.50;1.20;;;20.20;98.00;;;;;;5040399;28;20041;-76
2022/07/27 11:29:00;;;;;;;;;;;20.30;97.40;;;;;;5007509;28;20042;-77
2022/07/27 11:31:26;;;;;;;4.65;1.67;;;20.30;97.40;;;;;;5008995;28;19917;-77
2022/07/27 11:34:01;;;;;;;3.30;1.55;;;20.20;97.30;;;;;;5013531;28;20417;-77
2022/07/27 11:36:40;;;;;;;6.78;1.63;;;20.10;96.30;;;;;;5014253;28;20656;-77
2022/07/27 11:39:12;;;;;;;5.50;1.50;;;20.00;96.70;;;;;;5030877;28;20065;-76
2022/07/27 11:41:38;;;;;;;4.95;1.80;;;19.90;96.80;;;;;;5025370;28;20588;-75
2022/07/27 11:44:07;;;;;;;5.35;1.35;;;19.70;97.00;;;;;;5050855;28;20088;-75
2022/07/27 11:46:38;;;;;;;4.10;1.40;;;19.60;96.80;;;;;;5016511;28;20087;-75
2022/07/27 11:49:07;;;;;;;4.72;1.88;;;19.50;96.80;;;;;;5030692;28;20064;-75
2022/07/27 11:51:38;;;;;;;6.18;1.70;;;19.40;96.70;;;;;;5016381;28;20087;-75
2022/07/27 11:54:08;;;;;;;6.28;2.17;;;19.30;96.70;;;;;;5031003;28;20044;-76
2022/07/27 11:56:36;;;;;;;11.60;1.80;;;19.30;96.90;;;;;;5029078;28;20043;-75
2022/07/27 11:59:32;;;;;;;5.00;1.80;;;19.20;97.10;;;;;;5033348;28;20041;-75
2022/07/27 12:02:06;;;;;;;4.95;1.73;;;19.20;97.00;;;;;;5028207;28;20045;-75
2022/07/27 12:04:34;;;;;;;50.90;35.53;;;19.30;97.40;;;;;;5015804;28;20128;-75
2022/07/27 12:07:09;;;;;;;2.80;1.30;;;19.40;96.80;;;;;;5014741;28;20049;-76
2022/07/27 12:09:44;;;;;;;4.38;1.42;;;19.40;96.60;;;;;;5026917;28;20163;-75
2022/07/27 12:12:26;;;;;;;8.50;1.60;;;19.50;97.00;;;;;;5007755;28;20033;-75
2022/07/27 12:14:55;;;;;;;5.50;1.55;;;19.60;96.80;;;;;;5032635;28;20033;-75
2022/07/27 12:17:38;;;;;;;4.18;1.35;;;19.70;96.80;;;;;;5030884;28;20036;-75
2022/07/27 12:20:08;;;;;;;3.83;1.48;;;19.80;96.40;;;;;;5001237;28;20095;-75
2022/07/27 12:22:49;;;;;;;7.72;1.95;;;20.00;96.40;;;;;;5032927;28;20041;-75
2022/07/27 12:25:18;;;;;;;5.85;1.60;;;20.30;96.30;;;;;;5031503;28;20083;-75
2022/07/27 12:27:53;;;;;;;4.25;1.63;;;20.40;96.00;;;;;;5015818;28;20033;-75
2022/07/27 12:30:34;;;;;;;3.97;1.60;;;20.40;95.80;;;;;;5016917;28;20033;-74
2022/07/27 12:33:00;;;;;;;3.80;1.17;;;20.10;95.20;;;;;;5016410;28;20029;-76
2022/07/27 12:35:32;;;;;;;3.97;1.52;;;19.80;94.80;;;;;;5047982;28;20041;-76
2022/07/27 12:38:06;;;;;;;1.95;1.35;;;19.60;94.40;;;;;;5015397;28;20052;-76
2022/07/27 12:40:41;;;;;;;3.15;1.50;;;19.20;94.20;;;;;;5032913;28;20465;-76
2022/07/27 12:43:08;;;;;;;2.10;1.00;;;19.10;94.50;;;;;;5000395;28;20050;-75
2022/07/27 12:45:37;;;;;;;4.45;1.40;;;19.00;94.40;;;;;;5013150;28;20146;-76
2022/07/27 12:48:17;;;;;;;2.38;1.23;;;18.80;94.40;;;;;;5019456;28;20124;-75
2022/07/27 12:51:05;;;;;;;3.90;1.38;;;18.80;94.40;;;;;;5015500;28;20052;-76
2022/07/27 12:53:32;;;;;;;4.65;1.27;;;18.70;94.30;;;;;;4996634;28;20530;-75
2022/07/27 12:56:01;;;;;;;3.45;1.42;;;18.70;94.70;;;;;;5001682;28;20067;-75